Minerva Virgo — SXXT — position and weather

sailwx.info

Track history (hours):
 
Tides and Currents Weather Stations Pressure Air Temp Water Temp Dewpoint Dewpoint Depression Visibility Wind Speed Wind Dir Waves Ship Positions

Minerva Virgo

Last reported at 2017-Oct-25 00:17 UTC. Time now 2017-Dec-13 03:40 UTC.
Position N 11°55' W 023°19'.
Warning: this ship's position is 49 days out of date.

Length 183 m; draft 8 m.

Type: Ship. MMSI: 240730000.

Date/timePositionNaut miles runAvg speedWind from/ knotsBaromVisibWave heightAir tempDewpointWater temp
2017-Oct-25 00:17N 11°55' W 023°19'412.9
2017-Oct-24 23:57N 11°58' W 023°17'612.7
2017-Oct-24 23:29N 12°04' W 023°15'4412.9
2017-Oct-24 20:07N 12°43' W 022°54'113.0
2017-Oct-24 20:00N 12°44' W 022°54'712.6
2017-Oct-24 19:27N 12°50' W 022°51'612.1
2017-Oct-24 18:59N 12°55' W 022°48'1011.8
2017-Oct-24 18:10N 13°04' W 022°44'211.9
2017-Oct-24 17:59N 13°06' W 022°43'611.8
2017-Oct-24 17:30N 13°11' W 022°40'611.7
2017-Oct-24 16:59N 13°16' W 022°38'611.9
2017-Oct-24 16:31N 13°22' W 022°35'612.1
2017-Oct-24 16:00N 13°27' W 022°32'712.1
2017-Oct-24 15:25N 13°33' W 022°29'511.9
2017-Oct-24 15:00N 13°38' W 022°27'611.8
2017-Oct-24 14:30N 13°43' W 022°24'611.7
2017-Oct-24 13:59N 13°49' W 022°21'611.8
2017-Oct-24 13:29N 13°54' W 022°19'611.7
2017-Oct-24 13:00N 13°59' W 022°16'611.5
2017-Oct-24 12:30N 14°04' W 022°14'  
2017-Oct-21 02:51N 28°29' W 013°12'58912.1
2017-Oct-19 02:15N 35°58' W 005°41'2 9.8
2017-Oct-19 02:00N 35°58' W 005°38'510.5
2017-Oct-19 01:30N 35°59' W 005°32'510.3
2017-Oct-19 01:00N 36°01' W 005°26'510.7
2017-Oct-19 00:30N 36°03' W 005°20'4 7.9
2017-Oct-19 00:00N 36°06' W 005°17'2 4.3
2017-Oct-18 23:30N 36°04' W 005°17'612.0
2017-Oct-18 23:00N 36°04' W 005°09'18912.6
2017-Oct-18 08:04N 36°20' W 001°16'112.2
2017-Oct-18 07:59N 36°20' W 001°15'7512.6
2017-Oct-18 02:02N 36°34' E 000°17'112.4
2017-Oct-18 01:58N 36°34' E 000°18'1312.7
2017-Oct-18 00:56N 36°36' E 000°34'3013.3
2017-Oct-17 22:42N 36°42' E 001°10'313.1
2017-Oct-17 22:30N 36°42' E 001°13'1312.9
2017-Oct-17 21:31N 36°44' E 001°29'512.9
2017-Oct-17 21:10N 36°45' E 001°35'213.0
2017-Oct-17 21:00N 36°45' E 001°37'1312.3
2017-Oct-17 19:59N 36°46' E 001°53'  
Track history (hours):
 
Tides and Currents Weather Stations Pressure Air Temp Water Temp Dewpoint Dewpoint Depression Visibility Wind Speed Wind Dir Waves Ship Positions

Minerva Virgo

Last reported at 2017-Oct-25 00:17 UTC. Time now 2017-Dec-13 03:40 UTC.
Position N 11°55' W 023°19'.
Warning: this ship's position is 49 days out of date.

Length 183 m; draft 8 m.

Type: Ship. MMSI: 240730000.

Date/timePositionNaut miles runAvg speedWind from/ knotsBaromVisibWave heightAir tempDewpointWater temp
2017-Oct-25 00:17N 11°55' W 023°19'412.9
2017-Oct-24 23:57N 11°58' W 023°17'612.7
2017-Oct-24 23:29N 12°04' W 023°15'4412.9
2017-Oct-24 20:07N 12°43' W 022°54'113.0
2017-Oct-24 20:00N 12°44' W 022°54'712.6
2017-Oct-24 19:27N 12°50' W 022°51'612.1
2017-Oct-24 18:59N 12°55' W 022°48'1011.8
2017-Oct-24 18:10N 13°04' W 022°44'211.9
2017-Oct-24 17:59N 13°06' W 022°43'611.8
2017-Oct-24 17:30N 13°11' W 022°40'611.7
2017-Oct-24 16:59N 13°16' W 022°38'611.9
2017-Oct-24 16:31N 13°22' W 022°35'612.1
2017-Oct-24 16:00N 13°27' W 022°32'712.1
2017-Oct-24 15:25N 13°33' W 022°29'511.9
2017-Oct-24 15:00N 13°38' W 022°27'611.8
2017-Oct-24 14:30N 13°43' W 022°24'611.7
2017-Oct-24 13:59N 13°49' W 022°21'611.8
2017-Oct-24 13:29N 13°54' W 022°19'611.7
2017-Oct-24 13:00N 13°59' W 022°16'611.5
2017-Oct-24 12:30N 14°04' W 022°14'  
2017-Oct-21 02:51N 28°29' W 013°12'58912.1
2017-Oct-19 02:15N 35°58' W 005°41'2 9.8
2017-Oct-19 02:00N 35°58' W 005°38'510.5
2017-Oct-19 01:30N 35°59' W 005°32'510.3
2017-Oct-19 01:00N 36°01' W 005°26'510.7
2017-Oct-19 00:30N 36°03' W 005°20'4 7.9
2017-Oct-19 00:00N 36°06' W 005°17'2 4.3
2017-Oct-18 23:30N 36°04' W 005°17'612.0
2017-Oct-18 23:00N 36°04' W 005°09'18912.6
2017-Oct-18 08:04N 36°20' W 001°16'112.2
2017-Oct-18 07:59N 36°20' W 001°15'7512.6
2017-Oct-18 02:02N 36°34' E 000°17'112.4
2017-Oct-18 01:58N 36°34' E 000°18'1312.7
2017-Oct-18 00:56N 36°36' E 000°34'3013.3
2017-Oct-17 22:42N 36°42' E 001°10'313.1
2017-Oct-17 22:30N 36°42' E 001°13'1312.9
2017-Oct-17 21:31N 36°44' E 001°29'512.9
2017-Oct-17 21:10N 36°45' E 001°35'213.0
2017-Oct-17 21:00N 36°45' E 001°37'1312.3
2017-Oct-17 19:59N 36°46' E 001°53'  

Dump ship's entire track history